Time;durP1;ratioP1;P1;durP2;ratioP2;P2;SDS_P1;SDS_P2;PMS_P1;PMS_P2;Temp;Humidity;BMP_temperature;BMP_pressure;BME280_temperature;BME280_humidity;BME280_pressure;Samples;Min_cycle;Max_cycle;Signal;HPM_P1;HPM_P2
2021/04/22 00:00:20;;;;;;;37.08;22.82;;;;;;;6.79;72.16;96886.67;1750078;80;25881;-82
2021/04/22 00:02:50;;;;;;;37.55;21.25;;;;;;;6.71;72.08;96890.05;1750062;80;25810;-82
2021/04/22 00:05:28;;;;;;;32.25;19.35;;;;;;;6.65;72.22;96884.95;1750041;80;25838;-81
2021/04/22 00:07:57;;;;;;;35.30;21.62;;;;;;;6.62;72.34;96882.69;1750123;80;25743;-81
2021/04/22 00:10:42;;;;;;;32.03;20.20;;;;;;;6.64;72.39;96881.16;1750271;80;28398;-81
2021/04/22 00:13:11;;;;;;;31.87;20.10;;;;;;;6.65;72.39;96880.93;1750191;80;26607;-82
2021/04/22 00:15:40;;;;;;;30.52;18.80;;;;;;;6.66;72.47;96883.93;1750154;80;25758;-81
2021/04/22 00:18:09;;;;;;;29.27;18.12;;;;;;;6.64;72.51;96877.93;1750191;80;25653;-81
2021/04/22 00:20:37;;;;;;;25.82;17.45;;;;;;;6.65;72.53;96877.42;1750142;80;25742;-81
2021/04/22 00:23:07;;;;;;;26.15;16.62;;;;;;;6.67;72.55;96870.00;1750114;80;28458;-81
2021/04/22 00:25:35;;;;;;;26.10;17.80;;;;;;;6.73;72.58;96869.22;1750028;80;26188;-81
2021/04/22 00:28:04;;;;;;;26.00;16.42;;;;;;;6.78;72.56;96870.26;1750237;80;25709;-81
2021/04/22 00:30:33;;;;;;;24.15;16.62;;;;;;;6.80;72.50;96870.89;1750221;80;26641;-81
2021/04/22 00:33:04;;;;;;;23.30;16.07;;;;;;;6.79;72.50;96867.89;1750238;80;25862;-81
2021/04/22 00:35:31;;;;;;;26.80;16.23;;;;;;;6.70;72.49;96865.08;1750178;80;28422;-82
2021/04/22 00:37:58;;;;;;;21.52;14.87;;;;;;;6.68;72.54;96865.78;1750005;80;25757;-82
2021/04/22 00:40:28;;;;;;;21.00;15.28;;;;;;;6.70;72.53;96867.77;1750265;80;25839;-81
2021/04/22 00:43:08;;;;;;;25.90;16.15;;;;;;;6.75;72.51;96861.30;1750142;80;25742;-81
2021/04/22 00:45:37;;;;;;;22.10;16.60;;;;;;;6.77;72.49;96861.89;1750205;80;25718;-81
2021/04/22 00:48:06;;;;;;;23.85;17.37;;;;;;;6.78;72.44;96862.21;1750095;80;27510;-82
2021/04/22 00:50:37;;;;;;;20.23;16.20;;;;;;;6.76;72.44;96866.15;1750105;80;25846;-81
2021/04/22 00:53:06;;;;;;;23.02;15.93;;;;;;;6.76;72.49;96860.23;1750144;80;25922;-82
2021/04/22 00:55:35;;;;;;;24.60;16.93;;;;;;;6.74;72.49;96865.00;1750332;80;26529;-81
2021/04/22 00:58:05;;;;;;;26.62;18.60;;;;;;;6.77;72.52;96857.05;1750227;80;25731;-81
2021/04/22 01:00:37;;;;;;;23.07;16.85;;;;;;;6.80;72.49;96860.16;1750233;80;27572;-81
2021/04/22 01:03:09;;;;;;;28.17;18.42;;;;;;;6.82;72.43;96855.43;1750249;80;25810;-81
2021/04/22 01:05:47;;;;;;;26.07;18.40;;;;;;;6.86;72.49;96857.20;1771527;80;26337;-81
2021/04/22 01:08:14;;;;;;;30.23;18.60;;;;;;;6.79;72.34;96851.80;1750207;80;26406;-81
2021/04/22 01:10:42;;;;;;;29.42;18.62;;;;;;;6.78;72.45;96850.66;1750174;80;25701;-81
2021/04/22 01:13:10;;;;;;;27.20;17.30;;;;;;;6.80;72.51;96853.45;1750281;80;27506;-82
2021/04/22 01:15:38;;;;;;;29.63;19.42;;;;;;;6.83;72.50;96858.94;1750158;80;25666;-82
2021/04/22 01:18:07;;;;;;;28.30;19.42;;;;;;;6.82;72.42;96860.80;1750357;80;25586;-81
2021/04/22 01:20:39;;;;;;;24.75;17.40;;;;;;;6.88;72.45;96869.08;1750299;80;26489;-81
2021/04/22 01:23:07;;;;;;;25.08;18.40;;;;;;;6.88;72.46;96866.68;1750247;80;33411;-81
2021/04/22 01:25:38;;;;;;;31.37;18.62;;;;;;;6.85;72.46;96868.45;1749976;80;27559;-81
2021/04/22 01:28:10;;;;;;;24.52;16.87;;;;;;;6.88;72.45;96867.23;1750032;80;25795;-81
2021/04/22 01:30:48;;;;;;;29.12;18.05;;;;;;;6.88;72.40;96869.08;1750371;80;25893;-81
2021/04/22 01:33:19;;;;;;;28.75;17.67;;;;;;;6.84;72.41;96868.64;1750294;80;25778;-82
2021/04/22 01:35:50;;;;;;;28.32;18.12;;;;;;;6.84;72.51;96870.81;1750602;80;25894;-81
2021/04/22 01:38:19;;;;;;;23.20;16.87;;;;;;;6.88;72.58;96881.16;1750290;80;27509;-81
2021/04/22 01:40:47;;;;;;;29.48;18.12;;;;;;;6.84;72.51;96885.57;1750119;80;26146;-81
2021/04/22 01:43:14;;;;;;;25.62;17.25;;;;;;;6.84;72.54;96874.84;1750270;80;25719;-81
2021/04/22 01:45:42;;;;;;;28.67;18.00;;;;;;;6.84;72.63;96869.47;1750283;80;25490;-81
2021/04/22 01:48:10;;;;;;;25.92;16.75;;;;;;;6.82;72.67;96863.48;1750216;80;25818;-82
2021/04/22 01:50:38;;;;;;;27.13;17.82;;;;;;;6.85;72.74;96851.02;1750257;80;27488;-81
2021/04/22 01:53:08;;;;;;;22.65;16.60;;;;;;;6.88;72.78;96857.29;1750176;80;26251;-81
2021/04/22 01:55:43;;;;;;;24.15;17.02;;;;;;;6.88;72.75;96855.66;1750228;80;25759;-82
2021/04/22 01:58:15;;;;;;;25.12;17.60;;;;;;;6.88;72.81;96849.78;1750192;80;25798;-81
2021/04/22 02:00:47;;;;;;;25.75;17.67;;;;;;;6.88;72.88;96855.95;1750388;80;25365;-81
2021/04/22 02:03:14;;;;;;;30.62;20.55;;;;;;;6.90;72.98;96853.58;1749683;80;27516;-81
2021/04/22 02:05:42;;;;;;;30.08;20.55;;;;;;;6.86;72.99;96847.30;1760928;80;25748;-81
2021/04/22 02:08:11;;;;;;;27.17;18.40;;;;;;;6.88;73.00;96850.58;1750199;80;25716;-81
2021/04/22 02:10:40;;;;;;;28.73;19.40;;;;;;;6.93;73.05;96845.14;1750334;80;25528;-81
2021/04/22 02:13:11;;;;;;;33.02;21.23;;;;;;;7.00;73.05;96848.69;1750144;80;25855;-81
2021/04/22 02:15:39;;;;;;;26.77;18.35;;;;;;;7.04;73.01;96852.59;1750153;80;27507;-82
2021/04/22 02:18:06;;;;;;;27.73;18.05;;;;;;;7.06;72.99;96847.34;1750139;80;26177;-81
2021/04/22 02:20:34;;;;;;;25.10;17.62;;;;;;;7.07;72.94;96849.52;1750240;80;25951;-82
2021/04/22 02:23:04;;;;;;;22.55;16.20;;;;;;;7.08;72.93;96845.29;1750260;80;25728;-82
2021/04/22 02:25:31;;;;;;;25.90;16.10;;;;;;;7.10;72.88;96851.80;1750119;80;25851;-81
2021/04/22 02:27:59;;;;;;;24.20;16.02;;;;;;;7.09;72.83;96850.97;1750354;80;28385;-82
2021/04/22 02:30:31;;;;;;;21.02;15.83;;;;;;;7.10;72.83;96846.44;1750256;80;26382;-82
2021/04/22 02:33:04;;;;;;;23.80;16.20;;;;;;;7.10;72.83;96845.09;1750595;80;25827;-82
2021/04/22 02:35:36;;;;;;;25.55;17.20;;;;;;;7.10;72.84;96841.06;1750247;80;25783;-81
2021/04/22 02:38:07;;;;;;;23.92;15.65;;;;;;;7.06;72.80;96846.52;1750215;80;25857;-81
2021/04/22 02:40:37;;;;;;;21.00;15.50;;;;;;;6.99;72.80;96837.64;1763421;80;27511;-81
2021/04/22 02:43:08;;;;;;;21.40;14.53;;;;;;;6.96;72.88;96839.38;1750136;80;26134;-81
2021/04/22 02:45:46;;;;;;;23.12;15.00;;;;;;;6.96;72.93;96839.38;1750121;80;25295;-81
2021/04/22 02:48:14;;;;;;;26.57;15.25;;;;;;;6.91;73.00;96836.45;1750166;80;25779;-81
2021/04/22 02:50:49;;;;;;;21.23;15.43;;;;;;;6.83;73.07;96836.97;1750396;80;25759;-81
2021/04/22 02:53:17;;;;;;;23.38;16.23;;;;;;;6.80;73.19;96837.36;1750315;80;27519;-81
2021/04/22 02:55:44;;;;;;;25.48;18.23;;;;;;;6.78;73.19;96835.39;1753502;80;26467;-81
2021/04/22 02:58:13;;;;;;;24.65;19.32;;;;;;;6.78;73.22;96838.07;1768131;80;25845;-81
2021/04/22 03:00:43;;;;;;;28.07;20.00;;;;;;;6.81;73.32;96834.99;1752788;80;26583;-81
2021/04/22 03:03:11;;;;;;;29.37;19.95;;;;;;;6.84;73.33;96832.43;1768434;80;25762;-82
2021/04/22 03:05:39;;;;;;;29.87;21.23;;;;;;;6.84;73.34;96829.23;1750111;80;27583;-81
2021/04/22 03:08:07;;;;;;;31.05;19.90;;;;;;;6.85;73.36;96832.23;1745058;80;26060;-81
2021/04/22 03:10:36;;;;;;;38.35;23.95;;;;;;;6.86;73.39;96828.52;1756846;81;25759;-81
2021/04/22 03:13:04;;;;;;;35.92;23.12;;;;;;;6.92;73.42;96832.75;1730906;81;25635;-81
2021/04/22 03:15:33;;;;;;;37.80;22.02;;;;;;;6.95;73.40;96840.40;1731113;81;25715;-81
2021/04/22 03:18:01;;;;;;;36.80;21.68;;;;;;;6.96;73.36;96838.03;1731101;81;27572;-82
2021/04/22 03:20:29;;;;;;;41.92;23.83;;;;;;;6.91;73.35;96845.34;1739944;81;26052;-81
2021/04/22 03:22:57;;;;;;;38.75;22.05;;;;;;;6.85;73.46;96843.47;1731012;81;25753;-81
2021/04/22 03:25:27;;;;;;;46.80;25.80;;;;;;;6.85;73.58;96841.62;1730844;81;25785;-81
2021/04/22 03:27:54;;;;;;;43.50;24.07;;;;;;;6.84;73.65;96839.97;1739435;81;25894;-81
2021/04/22 03:30:26;;;;;;;46.77;24.25;;;;;;;6.85;73.69;96839.45;1750454;81;27541;-81
2021/04/22 03:32:54;;;;;;;42.33;24.02;;;;;;;6.86;73.72;96846.47;1738598;80;34850;-81
2021/04/22 03:35:22;;;;;;;43.73;25.20;;;;;;;6.86;73.78;96843.28;1743902;81;25831;-81
2021/04/22 03:37:50;;;;;;;47.43;24.95;;;;;;;6.87;73.79;96845.45;1757156;81;26454;-81
2021/04/22 03:40:20;;;;;;;34.88;19.85;;;;;;;6.90;73.85;96849.55;1739032;81;25747;-82
2021/04/22 03:42:48;;;;;;;36.77;21.05;;;;;;;6.83;73.90;96843.67;1731023;81;27430;-82
2021/04/22 03:45:17;;;;;;;55.88;27.58;;;;;;;6.83;73.94;96842.33;1759950;79;25751;-82
2021/04/22 03:47:46;;;;;;;61.20;29.67;;;;;;;6.84;73.96;96842.64;1761211;81;25346;-82
2021/04/22 03:50:16;;;;;;;54.58;30.48;;;;;;;6.85;73.93;96845.64;1757607;81;25739;-81
2021/04/22 03:52:45;;;;;;;52.00;28.32;;;;;;;6.90;73.92;96853.58;1753177;81;26384;-82
2021/04/22 03:55:15;;;;;;;53.50;29.80;;;;;;;6.93;73.87;96849.16;1761183;79;27641;-81
2021/04/22 03:57:42;;;;;;;50.30;27.58;;;;;;;6.93;73.80;96849.99;1761181;81;25731;-81
2021/04/22 04:00:14;;;;;;;46.77;25.45;;;;;;;6.93;73.78;96855.87;1737128;81;25803;-81
2021/04/22 04:02:41;;;;;;;47.88;27.15;;;;;;;6.90;73.64;96854.92;1744160;81;26567;-82
2021/04/22 04:05:09;;;;;;;46.33;26.35;;;;;;;6.82;73.57;96854.09;1761217;81;26500;-81
2021/04/22 04:07:37;;;;;;;46.45;26.02;;;;;;;6.74;73.64;96855.61;1755070;81;27438;-81
2021/04/22 04:10:08;;;;;;;47.30;25.92;;;;;;;6.72;73.71;96859.00;1761218;79;25360;-82
2021/04/22 04:12:36;;;;;;;50.38;25.30;;;;;;;6.71;73.60;96861.88;1761622;81;25905;-81
2021/04/22 04:15:05;;;;;;;38.88;21.65;;;;;;;6.63;73.58;96865.58;1741505;81;25820;-81
2021/04/22 04:17:32;;;;;;;40.20;22.20;;;;;;;6.54;73.64;96865.92;1748642;81;25848;-82
2021/04/22 04:20:01;;;;;;;41.60;23.15;;;;;;;6.50;73.64;96865.00;1758802;79;27507;-81
2021/04/22 04:22:28;;;;;;;42.03;22.65;;;;;;;6.49;73.70;96867.36;1740878;81;25744;-82
2021/04/22 04:24:55;;;;;;;32.08;18.90;;;;;;;6.47;73.69;96865.91;1736673;81;25828;-82
2021/04/22 04:27:23;;;;;;;35.58;22.55;;;;;;;6.40;73.62;96878.45;1737436;81;26592;-81
2021/04/22 04:29:50;;;;;;;39.85;24.45;;;;;;;6.39;73.88;96873.61;1749372;81;25319;-81
2021/04/22 04:32:17;;;;;;;42.17;25.15;;;;;;;6.45;74.05;96875.48;1761815;81;27554;-81
2021/04/22 04:34:44;;;;;;;43.23;25.90;;;;;;;6.50;74.12;96874.90;1767200;79;25723;-81
2021/04/22 04:37:12;;;;;;;39.70;24.05;;;;;;;6.53;74.22;96871.80;1748213;81;25918;-81
2021/04/22 04:39:39;;;;;;;45.67;25.48;;;;;;;6.57;74.20;96877.08;1752532;81;26448;-81
2021/04/22 04:42:07;;;;;;;47.33;27.45;;;;;;;6.62;74.20;96873.81;1767134;81;25820;-82
2021/04/22 04:44:35;;;;;;;47.33;26.25;;;;;;;6.68;74.27;96866.30;1749914;81;27569;-81
2021/04/22 04:47:03;;;;;;;36.15;23.67;;;;;;;6.74;74.27;96875.73;1736655;81;26252;-81
2021/04/22 04:49:30;;;;;;;35.08;23.25;;;;;;;6.84;74.34;96874.02;1755818;81;25822;-82
2021/04/22 04:51:58;;;;;;;39.55;25.45;;;;;;;6.93;74.31;96867.43;1750596;81;25668;-82
2021/04/22 04:54:25;;;;;;;46.88;27.58;;;;;;;7.01;74.27;96873.12;1749462;81;25692;-82
2021/04/22 04:56:52;;;;;;;54.73;30.97;;;;;;;7.08;74.17;96875.33;1761966;81;28557;-81
2021/04/22 04:59:20;;;;;;;49.83;29.55;;;;;;;7.11;74.08;96881.13;1743564;81;25737;-81
2021/04/22 05:01:47;;;;;;;44.93;25.82;;;;;;;7.13;73.99;96884.41;1736821;81;25869;-81
2021/04/22 05:04:14;;;;;;;36.58;23.70;;;;;;;7.14;73.94;96878.02;1736821;81;25804;-81
2021/04/22 05:06:42;;;;;;;40.38;23.20;;;;;;;7.18;73.91;96882.47;1745699;81;25788;-80
2021/04/22 05:09:09;;;;;;;34.85;21.70;;;;;;;7.23;73.91;96886.22;1745435;81;26681;-81
2021/04/22 05:11:36;;;;;;;29.20;20.05;;;;;;;7.30;73.88;96884.88;1744562;81;26137;-81
2021/04/22 05:14:04;;;;;;;30.57;19.27;;;;;;;7.37;73.81;96884.36;1740547;81;25871;-81
2021/04/22 05:16:31;;;;;;;31.68;20.08;;;;;;;7.43;73.80;96879.53;1742642;81;26158;-81
2021/04/22 05:18:59;;;;;;;30.15;20.60;;;;;;;7.53;73.73;96876.44;1737194;81;25887;-82
2021/04/22 05:21:26;;;;;;;31.77;21.37;;;;;;;7.63;73.71;96884.09;1749916;81;27505;-81
2021/04/22 05:23:53;;;;;;;31.97;21.25;;;;;;;7.71;73.63;96882.05;1753986;81;25760;-81
2021/04/22 05:26:21;;;;;;;26.90;19.10;;;;;;;7.79;73.54;96881.84;1744962;81;25691;-81
2021/04/22 05:28:51;;;;;;;22.62;15.00;;;;;;;7.88;73.39;96886.48;1736762;81;26374;-81
2021/04/22 05:31:18;;;;;;;22.35;14.68;;;;;;;7.98;73.20;96882.02;1767169;81;25697;-81
2021/04/22 05:33:46;;;;;;;19.27;15.23;;;;;;;8.07;73.08;96880.80;1748915;81;27496;-81
2021/04/22 05:36:13;;;;;;;22.62;16.05;;;;;;;8.17;73.00;96882.03;1764580;81;26475;-81
2021/04/22 05:38:41;;;;;;;23.92;16.23;;;;;;;8.27;72.87;96876.22;1767248;81;25723;-81
2021/04/22 05:41:09;;;;;;;23.70;15.72;;;;;;;8.37;72.79;96878.50;1750530;81;26451;-81
2021/04/22 05:43:37;;;;;;;29.92;19.92;;;;;;;8.48;72.72;96881.88;1736702;81;25879;-81
2021/04/22 05:46:04;;;;;;;26.27;18.77;;;;;;;8.57;72.78;96883.33;1746537;81;27501;-81
2021/04/22 05:48:32;;;;;;;24.98;18.10;;;;;;;8.66;72.79;96881.53;1756261;81;25820;-81
2021/04/22 05:50:59;;;;;;;21.75;16.93;;;;;;;8.77;72.64;96881.91;1767255;81;25699;-82
2021/04/22 05:53:27;;;;;;;19.15;14.83;;;;;;;8.86;72.53;96879.28;1767132;81;25785;-81
2021/04/22 05:55:55;;;;;;;20.65;15.38;;;;;;;8.92;72.21;96880.61;1767170;81;25860;-82
2021/04/22 05:58:22;;;;;;;21.42;15.43;;;;;;;9.01;72.04;96882.02;1745571;81;27497;-81
2021/04/22 06:00:50;;;;;;;18.80;14.05;;;;;;;9.07;71.93;96874.94;1750357;81;25767;-82
2021/04/22 06:03:18;;;;;;;22.62;15.48;;;;;;;9.16;71.91;96870.15;1736712;81;25819;-82
2021/04/22 06:05:45;;;;;;;20.90;15.30;;;;;;;9.27;71.74;96879.72;1741936;81;26400;-82
2021/04/22 06:08:13;;;;;;;22.98;16.00;;;;;;;9.37;71.61;96879.23;1753086;81;25832;-81
2021/04/22 06:10:41;;;;;;;24.02;16.32;;;;;;;9.46;71.48;96878.45;1740224;81;27543;-81
2021/04/22 06:13:11;;;;;;;21.33;15.48;;;;;;;9.54;71.31;96879.01;1764651;80;26116;-81
2021/04/22 06:15:38;;;;;;;25.08;15.95;;;;;;;9.62;71.40;96882.81;1740924;81;26336;-81
2021/04/22 06:18:06;;;;;;;21.80;15.43;;;;;;;9.73;71.18;96886.14;1741601;81;25729;-80
2021/04/22 06:20:34;;;;;;;23.35;15.00;;;;;;;9.83;71.07;96890.22;1735609;81;25784;-81
2021/04/22 06:23:01;;;;;;;33.00;21.45;;;;;;;9.95;70.73;96891.16;1749726;81;28637;-81
2021/04/22 06:25:30;;;;;;;38.90;22.55;;;;;;;10.07;70.50;96898.84;1751841;79;25867;-81
2021/04/22 06:28:02;;;;;;;23.32;17.15;;;;;;;10.17;70.32;96893.77;1744807;81;25743;-81
2021/04/22 06:30:29;;;;;;;36.48;20.55;;;;;;;10.25;70.27;96894.89;1740012;81;25802;-81
2021/04/22 06:32:57;;;;;;;48.60;28.25;;;;;;;10.31;70.06;96895.86;1745794;81;25826;-80
2021/04/22 06:35:24;;;;;;;53.13;30.75;;;;;;;10.38;69.64;96897.98;1746053;81;28481;-81
2021/04/22 06:37:52;;;;;;;28.15;18.05;;;;;;;10.44;69.34;96894.38;1730829;81;25787;-81
2021/04/22 06:40:22;;;;;;;19.60;14.60;;;;;;;10.48;69.37;96897.47;1752420;81;25687;-80
2021/04/22 06:42:50;;;;;;;18.40;14.05;;;;;;;10.48;69.17;96897.47;1743867;81;26475;-81
2021/04/22 06:45:18;;;;;;;20.12;14.47;;;;;;;10.44;69.10;96899.26;1755460;81;25780;-81
2021/04/22 06:47:47;;;;;;;22.87;14.68;;;;;;;10.42;68.97;96905.39;1761216;79;28443;-81
2021/04/22 06:50:19;;;;;;;19.90;14.80;;;;;;;10.44;68.81;96903.30;1761129;81;25803;-80
2021/04/22 06:52:47;;;;;;;18.98;13.90;;;;;;;10.49;68.56;96905.87;1761364;81;25829;-80
2021/04/22 06:55:19;;;;;;;18.23;14.35;;;;;;;10.52;68.36;96913.50;1744122;81;25819;-80
2021/04/22 06:57:48;;;;;;;20.85;13.85;;;;;;;10.54;68.20;96911.41;1754959;81;25719;-79
2021/04/22 07:00:20;;;;;;;76.60;16.57;;;;;;;10.59;68.16;96916.97;1753141;81;27463;-80
2021/04/22 07:02:49;;;;;;;22.13;15.75;;;;;;;10.51;67.41;96907.27;1736919;81;26119;-81
2021/04/22 07:05:18;;;;;;;28.30;15.68;;;;;;;10.46;66.84;96920.63;1737456;81;25705;-80
2021/04/22 07:07:46;;;;;;;18.27;14.50;;;;;;;10.45;66.59;96923.84;1750350;81;25735;-79
2021/04/22 07:10:16;;;;;;;374.35;34.15;;;;;;;10.49;66.32;96927.45;1761200;81;25740;-81
2021/04/22 07:12:43;;;;;;;40.45;15.68;;;;;;;10.50;65.97;96921.84;1739806;81;27468;-80
2021/04/22 07:15:12;;;;;;;49.30;14.75;;;;;;;10.53;65.62;96927.30;1745542;80;25335;-80
2021/04/22 07:17:40;;;;;;;19.55;13.70;;;;;;;10.56;64.97;96926.86;1756037;81;25691;-80
2021/04/22 07:20:13;;;;;;;18.30;13.45;;;;;;;10.61;64.77;96928.38;1743269;81;26466;-80
2021/04/22 07:22:40;;;;;;;16.27;12.90;;;;;;;10.67;64.71;96927.47;1734116;81;25792;-80
2021/04/22 07:25:12;;;;;;;13.62;11.18;;;;;;;10.87;64.70;96932.13;1753840;81;28508;-81
2021/04/22 07:27:41;;;;;;;32.88;12.40;;;;;;;11.05;64.40;96940.23;1755182;81;27018;-81
2021/04/22 07:30:10;;;;;;;135.75;16.42;;;;;;;11.15;63.62;96939.18;1730881;81;26261;-81
2021/04/22 07:32:39;;;;;;;21.40;14.10;;;;;;;11.19;63.37;96948.49;1752101;81;25832;-80
2021/04/22 07:35:10;;;;;;;28.12;13.85;;;;;;;11.22;63.09;96954.50;1731055;81;25998;-81
2021/04/22 07:37:40;;;;;;;85.77;18.73;;;;;;;11.18;62.98;96954.12;1730729;81;27500;-80
2021/04/22 07:40:11;;;;;;;238.45;28.67;;;;;;;11.23;63.02;96950.75;1730749;81;26225;-81
2021/04/22 07:42:39;;;;;;;26.73;16.97;;;;;;;11.32;62.84;96961.55;1732341;81;25919;-79
2021/04/22 07:45:09;;;;;;;30.92;15.65;;;;;;;11.49;62.55;96959.33;1750012;81;25803;-81
2021/04/22 07:47:36;;;;;;;75.60;19.73;;;;;;;11.65;62.50;96950.29;1751986;81;25761;-80
2021/04/22 07:50:08;;;;;;;28.90;16.07;;;;;;;11.80;62.13;96961.03;1752056;81;28752;-81
2021/04/22 07:52:35;;;;;;;29.45;15.93;;;;;;;12.11;61.97;96963.99;1750366;81;26309;-80
2021/04/22 07:55:07;;;;;;;21.23;15.70;;;;;;;12.33;61.08;96965.62;1760975;81;25752;-82
2021/04/22 07:57:35;;;;;;;21.27;15.10;;;;;;;12.53;60.24;96968.84;1737717;81;26048;-80
2021/04/22 08:00:09;;;;;;;25.68;15.93;;;;;;;12.82;60.01;96970.30;1738647;81;25787;-81
2021/04/22 08:02:37;;;;;;;21.25;16.00;;;;;;;13.17;59.98;96969.77;1745261;81;28550;-80
2021/04/22 08:05:06;;;;;;;20.00;15.15;;;;;;;13.45;58.83;96969.55;1758297;81;26067;-82
2021/04/22 08:07:33;;;;;;;18.40;13.60;;;;;;;13.55;58.73;96977.34;1742901;81;25812;-82
2021/04/22 08:10:00;;;;;;;20.32;15.60;;;;;;;13.72;58.03;96963.03;1768366;80;25829;-82
2021/04/22 08:12:28;;;;;;;25.08;15.88;;;;;;;13.72;57.51;96961.15;1749993;80;25859;-82
2021/04/22 08:14:58;;;;;;;19.45;15.40;;;;;;;13.84;57.35;96963.81;1750052;80;28480;-82
2021/04/22 08:17:25;;;;;;;21.27;14.98;;;;;;;13.66;57.13;96976.48;1750014;80;25793;-82
2021/04/22 08:19:53;;;;;;;23.60;15.65;;;;;;;13.46;57.10;96967.95;1750098;80;25846;-82
2021/04/22 08:22:20;;;;;;;18.98;15.68;;;;;;;13.44;56.93;96966.54;1766246;80;26479;-82
2021/04/22 08:24:48;;;;;;;22.15;15.25;;;;;;;13.16;56.41;96968.13;1752701;80;25754;-81
2021/04/22 08:27:16;;;;;;;22.17;14.23;;;;;;;13.15;56.42;96975.16;1750257;80;27506;-81
2021/04/22 08:29:43;;;;;;;22.10;15.68;;;;;;;13.23;56.01;96966.13;1750246;80;26405;-81
2021/04/22 08:32:11;;;;;;;21.37;14.78;;;;;;;13.17;55.48;96977.08;1750217;80;25847;-80
2021/04/22 08:34:38;;;;;;;21.45;16.50;;;;;;;13.13;55.84;96974.01;1750161;80;25808;-81
2021/04/22 08:37:06;;;;;;;22.07;17.32;;;;;;;13.03;55.23;96972.44;1750190;80;25934;-81
2021/04/22 08:39:33;;;;;;;25.05;16.42;;;;;;;12.90;54.36;96972.67;1750228;80;27706;-81
2021/04/22 08:42:01;;;;;;;20.00;14.30;;;;;;;13.13;55.42;96975.89;1750250;80;25861;-81
2021/04/22 08:44:29;;;;;;;22.45;16.15;;;;;;;13.40;54.96;96973.52;1725044;80;25722;-80
2021/04/22 08:46:57;;;;;;;23.35;16.17;;;;;;;13.73;54.90;96974.18;1750339;80;25804;-79
2021/04/22 08:49:25;;;;;;;21.50;16.42;;;;;;;14.10;54.68;96975.97;1724629;80;25750;-80
2021/04/22 08:51:52;;;;;;;25.32;17.95;;;;;;;13.91;54.10;96976.69;1750225;80;27714;-79
2021/04/22 08:54:20;;;;;;;24.75;17.67;;;;;;;13.70;54.07;96989.86;1750237;80;25803;-80
2021/04/22 08:56:47;;;;;;;27.05;18.95;;;;;;;13.55;54.38;96984.66;1750277;80;25924;-80
2021/04/22 08:59:16;;;;;;;24.52;18.95;;;;;;;13.50;54.64;96975.08;1750318;80;25826;-81
2021/04/22 09:01:43;;;;;;;29.55;21.80;;;;;;;13.40;54.14;96980.30;1750260;80;25342;-80
2021/04/22 09:04:11;;;;;;;28.20;22.87;;;;;;;13.21;55.01;96998.05;1750165;80;27554;-80
2021/04/22 09:06:39;;;;;;;32.90;22.00;;;;;;;13.03;55.17;97007.66;1750039;80;26002;-78
2021/04/22 09:09:09;;;;;;;32.93;24.98;;;;;;;13.06;55.74;97000.39;1750253;80;25872;-81
2021/04/22 09:11:46;;;;;;;29.87;24.00;;;;;;;12.81;55.38;97001.16;1750185;80;25735;-80
2021/04/22 09:14:20;;;;;;;34.30;23.45;;;;;;;12.60;56.16;97006.63;1750371;80;25770;-82
2021/04/22 09:16:48;;;;;;;35.55;25.08;;;;;;;12.36;56.26;96998.99;1750188;80;27305;-80
2021/04/22 09:21:58;;;;;;;37.17;26.25;;;;;;;12.67;56.98;97003.82;1872970;76;25647;-79
2021/04/22 09:24:27;;;;;;;40.12;26.52;;;;;;;12.50;56.59;97011.27;1852311;77;25748;-80
2021/04/22 09:27:02;;;;;;;39.63;28.35;;;;;;;12.40;56.97;97011.02;1832850;77;28580;-79
2021/04/22 09:29:45;;;;;;;39.67;28.05;;;;;;;12.48;57.24;97010.67;1826459;77;26099;-79
2021/04/22 09:32:21;;;;;;;40.85;29.57;;;;;;;12.61;57.16;97015.05;1829979;76;25636;-82
2021/04/22 09:35:14;;;;;;;38.20;26.33;;;;;;;12.57;57.04;97020.09;1818966;77;25882;-82
2021/04/22 09:37:49;;;;;;;36.70;26.95;;;;;;;12.58;56.96;97008.20;1842641;77;25705;-82
2021/04/22 09:40:35;;;;;;;37.35;27.58;;;;;;;12.43;57.36;97020.56;1835023;77;27491;-82
2021/04/22 09:43:07;;;;;;;40.90;28.40;;;;;;;12.21;56.87;97013.48;1821131;77;26102;-81
2021/04/22 09:45:36;;;;;;;37.90;27.80;;;;;;;11.90;57.43;97020.80;1841750;76;25763;-79
2021/04/22 09:48:26;;;;;;;41.80;30.35;;;;;;;11.79;58.02;97028.34;1846239;77;26296;-82
2021/04/22 09:50:52;;;;;;;38.33;28.52;;;;;;;11.54;57.89;97037.87;1840036;77;26111;-81
2021/04/22 09:53:21;;;;;;;39.23;30.30;;;;;;;11.41;58.32;97046.13;1828727;77;27727;-83
2021/04/22 09:55:48;;;;;;;36.08;28.00;;;;;;;11.34;58.41;97063.47;1819881;77;25740;-81
2021/04/22 09:58:29;;;;;;;37.98;26.97;;;;;;;11.11;58.50;97068.16;1822338;76;25737;-80
2021/04/22 10:00:57;;;;;;;36.08;27.42;;;;;;;10.86;58.72;97073.61;1852287;77;25721;-79
2021/04/22 10:03:24;;;;;;;30.43;23.38;;;;;;;10.50;58.83;97091.84;1828733;77;25774;-81
2021/04/22 10:06:02;;;;;;;29.32;19.92;;;;;;;10.13;59.29;97100.24;1852241;77;27463;-81
2021/04/22 10:08:30;;;;;;;23.42;18.48;;;;;;;9.68;59.68;97092.13;1817630;77;25857;-81
2021/04/22 10:11:08;;;;;;;24.25;18.25;;;;;;;9.09;60.47;97092.30;1825801;77;25487;-79
2021/04/22 10:13:49;;;;;;;22.93;16.75;;;;;;;8.75;61.27;97087.16;1848805;77;25733;-81
2021/04/22 10:16:17;;;;;;;25.10;17.73;;;;;;;8.63;61.64;97088.30;1788532;79;25860;-80
2021/04/22 10:18:48;;;;;;;19.35;15.15;;;;;;;8.46;62.01;97093.23;1809874;78;27738;-81
2021/04/22 10:21:16;;;;;;;16.93;12.88;;;;;;;8.34;62.39;97092.19;1814759;78;26046;-82
2021/04/22 10:23:45;;;;;;;17.00;12.55;;;;;;;8.30;62.54;97103.03;1804384;79;25881;-80
2021/04/22 10:26:22;;;;;;;13.38;10.63;;;;;;;8.12;62.75;97097.39;1804427;79;26439;-81
2021/04/22 10:28:50;;;;;;;20.00;12.15;;;;;;;8.00;62.81;97097.16;1811895;78;25800;-79
2021/04/22 10:31:17;;;;;;;13.18;10.60;;;;;;;7.86;62.94;97100.83;1804361;78;27781;-80
2021/04/22 10:33:46;;;;;;;15.50;11.48;;;;;;;7.87;63.00;97109.20;1803572;79;25722;-80
2021/04/22 10:36:14;;;;;;;12.35;10.45;;;;;;;7.88;63.00;97113.55;1803708;79;25771;-81
2021/04/22 10:38:42;;;;;;;12.37;10.23;;;;;;;7.83;62.80;97122.75;1803827;79;26534;-80
2021/04/22 10:41:11;;;;;;;12.58;10.18;;;;;;;7.69;63.10;97126.41;1805073;78;25385;-81
2021/04/22 10:43:40;;;;;;;13.22;10.08;;;;;;;7.68;63.10;97143.55;1814842;78;28646;-81
2021/04/22 10:46:07;;;;;;;34.50;16.25;;;;;;;7.58;63.18;97146.09;1805713;78;26926;-82
2021/04/22 10:48:35;;;;;;;39.90;21.12;;;;;;;7.45;63.21;97164.82;1777261;79;25786;-82
2021/04/22 10:51:05;;;;;;;19.73;13.28;;;;;;;7.35;63.61;97156.30;1808515;78;25844;-82
2021/04/22 10:53:39;;;;;;;12.13;9.80;;;;;;;7.40;63.66;97167.25;1825396;77;26082;-81
2021/04/22 10:56:08;;;;;;;12.88;9.25;;;;;;;7.41;63.55;97169.43;1819485;77;27571;-81
2021/04/22 10:58:43;;;;;;;9.63;8.43;;;;;;;7.37;63.75;97177.04;1814138;77;25804;-82
2021/04/22 11:01:15;;;;;;;12.07;7.95;;;;;;;7.33;63.75;97175.80;1818206;77;25298;-81
2021/04/22 11:03:46;;;;;;;9.85;6.97;;;;;;;7.36;63.76;97187.49;1820428;77;25899;-81
2021/04/22 11:06:21;;;;;;;7.78;6.05;;;;;;;7.43;63.75;97188.36;1844061;77;25850;-82
2021/04/22 11:08:54;;;;;;;8.18;6.08;;;;;;;7.31;63.31;97192.61;1833788;77;27499;-81
2021/04/22 11:11:27;;;;;;;6.50;4.42;;;;;;;7.13;63.79;97190.91;1800227;77;25706;-82
2021/04/22 11:14:14;;;;;;;7.33;4.58;;;;;;;7.16;63.79;97203.44;1804499;77;25769;-81
2021/04/22 11:16:49;;;;;;;4.33;3.70;;;;;;;7.20;63.75;97205.23;1809124;77;26143;-82
2021/04/22 11:19:26;;;;;;;7.10;4.33;;;;;;;7.13;63.77;97194.94;1803172;77;25778;-81
2021/04/22 11:21:58;;;;;;;8.18;5.17;;;;;;;7.10;63.89;97198.86;1788084;79;28449;-82
2021/04/22 11:24:33;;;;;;;7.30;4.72;;;;;;;7.08;63.98;97203.59;1827326;77;26259;-81
2021/04/22 11:27:11;;;;;;;8.28;5.45;;;;;;;7.04;64.02;97194.77;1829933;77;25908;-82
2021/04/22 11:29:57;;;;;;;10.18;4.70;;;;;;;7.03;64.30;97201.16;1831515;77;25771;-81
2021/04/22 11:32:34;;;;;;;7.92;5.30;;;;;;;7.12;64.51;97206.73;1838162;77;25796;-81
2021/04/22 11:35:20;;;;;;;6.33;4.62;;;;;;;7.16;64.63;97211.49;1796419;77;28402;-82
2021/04/22 11:37:58;;;;;;;7.62;5.03;;;;;;;7.20;64.76;97225.36;1799177;77;25758;-83